sensor_id;sensor_type;location;lat;lon;timestamp;pressure;altitude;pressure_sealevel;temperature;humidity
69784;BME280;57054;51.978;4.498;2023-03-23T00:02:29;100117.63;;;10.16;100.00
69784;BME280;57054;51.978;4.498;2023-03-23T00:04:55;100107.22;;;10.14;100.00
69784;BME280;57054;51.978;4.498;2023-03-23T00:07:21;100105.44;;;10.15;100.00
69784;BME280;57054;51.978;4.498;2023-03-23T00:09:50;100115.91;;;10.15;100.00
69784;BME280;57054;51.978;4.498;2023-03-23T00:12:27;100110.69;;;10.15;100.00
69784;BME280;57054;51.978;4.498;2023-03-23T00:15:00;100110.69;;;10.15;100.00
69784;BME280;57054;51.978;4.498;2023-03-23T00:17:27;100102.75;;;10.16;100.00
69784;BME280;57054;51.978;4.498;2023-03-23T00:19:53;100091.44;;;10.16;100.00
69784;BME280;57054;51.978;4.498;2023-03-23T00:22:18;100103.63;;;10.17;100.00
69784;BME280;57054;51.978;4.498;2023-03-23T00:24:47;100084.44;;;10.16;100.00
69784;BME280;57054;51.978;4.498;2023-03-23T00:27:12;100086.16;;;10.17;100.00
69784;BME280;57054;51.978;4.498;2023-03-23T00:29:40;100093.06;;;10.18;100.00
69784;BME280;57054;51.978;4.498;2023-03-23T00:32:07;100103.63;;;10.17;100.00
69784;BME280;57054;51.978;4.498;2023-03-23T00:34:38;100087.94;;;10.17;100.00
69784;BME280;57054;51.978;4.498;2023-03-23T00:37:05;100089.66;;;10.16;100.00
69784;BME280;57054;51.978;4.498;2023-03-23T00:39:32;100079.22;;;10.16;100.00
69784;BME280;57054;51.978;4.498;2023-03-23T00:41:58;100073.13;;;10.16;100.00
69784;BME280;57054;51.978;4.498;2023-03-23T00:44:30;100080.06;;;10.17;100.00
69784;BME280;57054;51.978;4.498;2023-03-23T00:46:56;100067.97;;;10.14;100.00
69784;BME280;57054;51.978;4.498;2023-03-23T00:49:23;100067.91;;;10.16;100.00
69784;BME280;57054;51.978;4.498;2023-03-23T00:51:53;100066.31;;;10.13;100.00
69784;BME280;57054;51.978;4.498;2023-03-23T00:54:20;100074.16;;;10.13;100.00
69784;BME280;57054;51.978;4.498;2023-03-23T00:56:46;100082.91;;;10.12;100.00
69784;BME280;57054;51.978;4.498;2023-03-23T00:59:11;100081.13;;;10.13;100.00
69784;BME280;57054;51.978;4.498;2023-03-23T01:01:37;100080.28;;;10.12;100.00
69784;BME280;57054;51.978;4.498;2023-03-23T01:04:03;100079.38;;;10.13;100.00
69784;BME280;57054;51.978;4.498;2023-03-23T01:06:34;100063.69;;;10.13;100.00
69784;BME280;57054;51.978;4.498;2023-03-23T01:09:01;100051.50;;;10.12;100.00
69784;BME280;57054;51.978;4.498;2023-03-23T01:11:27;100054.13;;;10.12;100.00
69784;BME280;57054;51.978;4.498;2023-03-23T01:13:52;100051.50;;;10.12;100.00
69784;BME280;57054;51.978;4.498;2023-03-23T01:16:18;100038.44;;;10.12;100.00
69784;BME280;57054;51.978;4.498;2023-03-23T01:18:43;100036.72;;;10.11;100.00
69784;BME280;57054;51.978;4.498;2023-03-23T01:21:12;100053.28;;;10.12;100.00
69784;BME280;57054;51.978;4.498;2023-03-23T01:23:38;100042.84;;;10.12;100.00
69784;BME280;57054;51.978;4.498;2023-03-23T01:26:06;100038.44;;;10.12;100.00
69784;BME280;57054;51.978;4.498;2023-03-23T01:28:33;100042.84;;;10.12;100.00
69784;BME280;57054;51.978;4.498;2023-03-23T01:31:04;100041.97;;;10.11;100.00
69784;BME280;57054;51.978;4.498;2023-03-23T01:33:30;100035.88;;;10.11;100.00
69784;BME280;57054;51.978;4.498;2023-03-23T01:35:56;100047.19;;;10.11;100.00
69784;BME280;57054;51.978;4.498;2023-03-23T01:38:22;100041.97;;;10.11;100.00
69784;BME280;57054;51.978;4.498;2023-03-23T01:40:47;100032.38;;;10.12;100.00
69784;BME280;57054;51.978;4.498;2023-03-23T01:43:13;100035.81;;;10.12;100.00
69784;BME280;57054;51.978;4.498;2023-03-23T01:45:40;100030.59;;;10.12;100.00
69784;BME280;57054;51.978;4.498;2023-03-23T01:48:28;100034.91;;;10.13;100.00
69784;BME280;57054;51.978;4.498;2023-03-23T01:53:37;100016.66;;;10.12;100.00
69784;BME280;57054;51.978;4.498;2023-03-23T01:56:04;100017.50;;;10.12;100.00
69784;BME280;57054;51.978;4.498;2023-03-23T01:58:32;100016.66;;;10.12;100.00
69784;BME280;57054;51.978;4.498;2023-03-23T02:04:22;100016.66;;;10.12;100.00
69784;BME280;57054;51.978;4.498;2023-03-23T02:06:48;100022.75;;;10.12;100.00
69784;BME280;57054;51.978;4.498;2023-03-23T02:09:15;100021.91;;;10.12;100.00
69784;BME280;57054;51.978;4.498;2023-03-23T02:11:42;100021.03;;;10.11;100.00
69784;BME280;57054;51.978;4.498;2023-03-23T02:14:08;100016.66;;;10.12;100.00
69784;BME280;57054;51.978;4.498;2023-03-23T02:35:01;100012.19;;;10.14;100.00
69784;BME280;57054;51.978;4.498;2023-03-23T02:37:32;100013.97;;;10.13;100.00
69784;BME280;57054;51.978;4.498;2023-03-23T02:40:08;100022.66;;;10.14;100.00
69784;BME280;57054;51.978;4.498;2023-03-23T02:42:38;100012.13;;;10.15;100.00
69784;BME280;57054;51.978;4.498;2023-03-23T02:45:07;100009.56;;;10.14;100.00
69784;BME280;57054;51.978;4.498;2023-03-23T02:47:35;100021.66;;;10.16;100.00
69784;BME280;57054;51.978;4.498;2023-03-23T02:50:03;100018.13;;;10.17;100.00
69784;BME280;57054;51.978;4.498;2023-03-23T02:52:32;100018.94;;;10.18;100.00
69784;BME280;57054;51.978;4.498;2023-03-23T02:54:59;100020.59;;;10.21;100.00
69784;BME280;57054;51.978;4.498;2023-03-23T02:57:26;100012.72;;;10.21;100.00
69784;BME280;57054;51.978;4.498;2023-03-23T02:59:52;100016.94;;;10.23;100.00
69784;BME280;57054;51.978;4.498;2023-03-23T03:02:23;100020.41;;;10.24;100.00
69784;BME280;57054;51.978;4.498;2023-03-23T03:10:25;99994.22;;;10.24;100.00
69784;BME280;57054;51.978;4.498;2023-03-23T03:13:03;100008.25;;;10.23;100.00
69784;BME280;57054;51.978;4.498;2023-03-23T03:15:33;100007.31;;;10.24;100.00
69784;BME280;57054;51.978;4.498;2023-03-23T03:20:27;100004.69;;;10.24;100.00
69784;BME280;57054;51.978;4.498;2023-03-23T03:22:57;100007.41;;;10.22;100.00
69784;BME280;57054;51.978;4.498;2023-03-23T03:25:24;100001.31;;;10.22;100.00
69784;BME280;57054;51.978;4.498;2023-03-23T03:27:52;100013.66;;;10.19;100.00
69784;BME280;57054;51.978;4.498;2023-03-23T03:30:21;100018.94;;;10.18;100.00
69784;BME280;57054;51.978;4.498;2023-03-23T03:32:51;100022.59;;;10.15;100.00
69784;BME280;57054;51.978;4.498;2023-03-23T03:35:18;100007.81;;;10.14;100.00
69784;BME280;57054;51.978;4.498;2023-03-23T03:37:45;99995.75;;;10.12;100.00
69784;BME280;57054;51.978;4.498;2023-03-23T03:40:17;100011.50;;;10.10;100.00
69784;BME280;57054;51.978;4.498;2023-03-23T03:42:44;100009.81;;;10.09;100.00
69784;BME280;57054;51.978;4.498;2023-03-23T03:45:17;100022.13;;;10.07;100.00
69784;BME280;57054;51.978;4.498;2023-03-23T03:47:43;100009.91;;;10.08;100.00
69784;BME280;57054;51.978;4.498;2023-03-23T03:50:09;100010.81;;;10.07;100.00
69784;BME280;57054;51.978;4.498;2023-03-23T03:52:35;100009.13;;;10.06;100.00
69784;BME280;57054;51.978;4.498;2023-03-23T03:55:01;100024.81;;;10.06;100.00
69784;BME280;57054;51.978;4.498;2023-03-23T03:57:27;100022.31;;;10.04;100.00
69784;BME280;57054;51.978;4.498;2023-03-23T03:59:52;100017.97;;;10.03;100.00
69784;BME280;57054;51.978;4.498;2023-03-23T04:02:17;100015.38;;;10.03;100.00
69784;BME280;57054;51.978;4.498;2023-03-23T04:04:48;100031.06;;;10.03;100.00
69784;BME280;57054;51.978;4.498;2023-03-23T04:07:15;100029.34;;;10.02;100.00
69784;BME280;57054;51.978;4.498;2023-03-23T04:09:44;100031.97;;;10.02;100.00
69784;BME280;57054;51.978;4.498;2023-03-23T04:12:11;100032.06;;;10.01;100.00
69784;BME280;57054;51.978;4.498;2023-03-23T04:14:36;100037.38;;;9.99;100.00
69784;BME280;57054;51.978;4.498;2023-03-23T04:17:02;100039.06;;;10.00;100.00
69784;BME280;57054;51.978;4.498;2023-03-23T04:19:27;100037.31;;;10.01;100.00
69784;BME280;57054;51.978;4.498;2023-03-23T04:21:54;100032.06;;;10.01;100.00
69784;BME280;57054;51.978;4.498;2023-03-23T04:24:20;100028.53;;;10.02;100.00
69784;BME280;57054;51.978;4.498;2023-03-23T04:26:49;100054.69;;;10.02;100.00
69784;BME280;57054;51.978;4.498;2023-03-23T04:29:17;100048.47;;;10.04;100.00
69784;BME280;57054;51.978;4.498;2023-03-23T04:31:43;100060.75;;;10.02;100.00
69784;BME280;57054;51.978;4.498;2023-03-23T04:34:10;100069.47;;;10.03;100.00
69784;BME280;57054;51.978;4.498;2023-03-23T04:36:39;100068.59;;;10.02;100.00
69784;BME280;57054;51.978;4.498;2023-03-23T04:39:04;100080.75;;;10.03;100.00
69784;BME280;57054;51.978;4.498;2023-03-23T04:41:32;100072.06;;;10.03;100.00
69784;BME280;57054;51.978;4.498;2023-03-23T04:43:57;100076.53;;;10.01;100.00
69784;BME280;57054;51.978;4.498;2023-03-23T04:46:28;100076.53;;;10.01;100.00
69784;BME280;57054;51.978;4.498;2023-03-23T04:48:54;100072.16;;;10.01;100.00
69784;BME280;57054;51.978;4.498;2023-03-23T04:51:20;100071.22;;;10.02;100.00
69784;BME280;57054;51.978;4.498;2023-03-23T04:53:45;100079.06;;;10.02;100.00
69784;BME280;57054;51.978;4.498;2023-03-23T04:56:11;100082.63;;;10.01;100.00
69784;BME280;57054;51.978;4.498;2023-03-23T04:58:39;100068.78;;;9.99;100.00
69784;BME280;57054;51.978;4.498;2023-03-23T05:01:04;100087.22;;;9.96;100.00
69784;BME280;57054;51.978;4.498;2023-03-23T05:03:30;100086.38;;;9.95;100.00
69784;BME280;57054;51.978;4.498;2023-03-23T05:05:56;100083.00;;;9.93;100.00
69784;BME280;57054;51.978;4.498;2023-03-23T05:08:23;100077.78;;;9.93;100.00
69784;BME280;57054;51.978;4.498;2023-03-23T05:10:54;100065.59;;;9.92;100.00
69784;BME280;57054;51.978;4.498;2023-03-23T05:13:20;100072.69;;;9.90;100.00
69784;BME280;57054;51.978;4.498;2023-03-23T05:15:46;100081.44;;;9.89;100.00
69784;BME280;57054;51.978;4.498;2023-03-23T05:18:11;100082.31;;;9.90;100.00
69784;BME280;57054;51.978;4.498;2023-03-23T05:20:37;100088.44;;;9.89;100.00
69784;BME280;57054;51.978;4.498;2023-03-23T05:23:02;100085.84;;;9.89;100.00
69784;BME280;57054;51.978;4.498;2023-03-23T05:25:28;100091.06;;;9.89;100.00
69784;BME280;57054;51.978;4.498;2023-03-23T05:27:53;100092.00;;;9.88;100.00
69784;BME280;57054;51.978;4.498;2023-03-23T05:30:20;100091.13;;;9.87;100.00
69784;BME280;57054;51.978;4.498;2023-03-23T05:32:46;100096.38;;;9.87;100.00
69784;BME280;57054;51.978;4.498;2023-03-23T05:35:16;100110.38;;;9.86;100.00
69784;BME280;57054;51.978;4.498;2023-03-23T05:37:42;100119.91;;;9.87;100.00
69784;BME280;57054;51.978;4.498;2023-03-23T05:40:09;100105.16;;;9.86;100.00
69784;BME280;57054;51.978;4.498;2023-03-23T05:42:37;100112.06;;;9.87;100.00
69784;BME280;57054;51.978;4.498;2023-03-23T05:45:06;100116.44;;;9.87;100.00
69784;BME280;57054;51.978;4.498;2023-03-23T05:47:31;100119.06;;;9.87;100.00
69784;BME280;57054;51.978;4.498;2023-03-23T05:49:57;100133.94;;;9.86;100.00
69784;BME280;57054;51.978;4.498;2023-03-23T05:52:23;100122.59;;;9.86;100.00
69784;BME280;57054;51.978;4.498;2023-03-23T05:54:52;100132.16;;;9.87;100.00
69784;BME280;57054;51.978;4.498;2023-03-23T05:57:18;100129.53;;;9.87;100.00
69784;BME280;57054;51.978;4.498;2023-03-23T05:59:44;100132.16;;;9.87;100.00
69784;BME280;57054;51.978;4.498;2023-03-23T06:02:10;100140.91;;;9.86;100.00
69784;BME280;57054;51.978;4.498;2023-03-23T06:04:36;100140.84;;;9.87;100.00
69784;BME280;57054;51.978;4.498;2023-03-23T06:07:03;100138.38;;;9.84;100.00
69784;BME280;57054;51.978;4.498;2023-03-23T06:09:29;100141.00;;;9.84;100.00
69784;BME280;57054;51.978;4.498;2023-03-23T06:11:55;100150.53;;;9.85;100.00
69784;BME280;57054;51.978;4.498;2023-03-23T06:14:21;100166.28;;;9.84;100.00
69784;BME280;57054;51.978;4.498;2023-03-23T06:16:47;100159.38;;;9.83;100.00
69784;BME280;57054;51.978;4.498;2023-03-23T06:19:13;100164.53;;;9.84;100.00
69784;BME280;57054;51.978;4.498;2023-03-23T06:21:38;100169.66;;;9.86;100.00
69784;BME280;57054;51.978;4.498;2023-03-23T06:24:03;100164.44;;;9.86;100.00
69784;BME280;57054;51.978;4.498;2023-03-23T06:26:35;100172.22;;;9.87;100.00
69784;BME280;57054;51.978;4.498;2023-03-23T06:29:03;100170.47;;;9.88;100.00
69784;BME280;57054;51.978;4.498;2023-03-23T06:31:55;100165.25;;;9.88;100.00
69784;BME280;57054;51.978;4.498;2023-03-23T06:34:22;100178.31;;;9.88;100.00
69784;BME280;57054;51.978;4.498;2023-03-23T06:36:48;100179.22;;;9.87;100.00
69784;BME280;57054;51.978;4.498;2023-03-23T06:39:13;100169.66;;;9.86;100.00
69784;BME280;57054;51.978;4.498;2023-03-23T06:41:39;100175.78;;;9.86;100.00
69784;BME280;57054;51.978;4.498;2023-03-23T06:44:05;100174.00;;;9.87;100.00
69784;BME280;57054;51.978;4.498;2023-03-23T06:46:31;100180.06;;;9.87;100.00
69784;BME280;57054;51.978;4.498;2023-03-23T06:48:57;100181.78;;;9.88;100.00
69784;BME280;57054;51.978;4.498;2023-03-23T06:51:23;100173.16;;;9.86;100.00
69784;BME280;57054;51.978;4.498;2023-03-23T06:53:49;100182.59;;;9.89;100.00
69784;BME280;57054;51.978;4.498;2023-03-23T06:56:14;100179.09;;;9.90;100.00
69784;BME280;57054;51.978;4.498;2023-03-23T06:58:40;100184.22;;;9.91;100.00
69784;BME280;57054;51.978;4.498;2023-03-23T07:01:07;100192.06;;;9.91;100.00
69784;BME280;57054;51.978;4.498;2023-03-23T07:03:33;100183.38;;;9.91;100.00
69784;BME280;57054;51.978;4.498;2023-03-23T07:05:59;100187.84;;;9.89;100.00
69784;BME280;57054;51.978;4.498;2023-03-23T07:08:25;100195.69;;;9.89;100.00
69784;BME280;57054;51.978;4.498;2023-03-23T07:10:52;100190.53;;;9.87;100.00
69784;BME280;57054;51.978;4.498;2023-03-23T07:13:18;100182.69;;;9.87;100.00
69784;BME280;57054;51.978;4.498;2023-03-23T07:15:44;100181.00;;;9.86;100.00
69784;BME280;57054;51.978;4.498;2023-03-23T07:18:09;100185.38;;;9.86;100.00
69784;BME280;57054;51.978;4.498;2023-03-23T07:20:35;100209.78;;;9.86;100.00
69784;BME280;57054;51.978;4.498;2023-03-23T07:23:01;100199.31;;;9.86;100.00
69784;BME280;57054;51.978;4.498;2023-03-23T07:25:27;100196.75;;;9.85;100.00
69784;BME280;57054;51.978;4.498;2023-03-23T07:27:52;100197.53;;;9.87;100.00
69784;BME280;57054;51.978;4.498;2023-03-23T07:30:18;100198.53;;;9.84;100.00
69784;BME280;57054;51.978;4.498;2023-03-23T07:32:43;100203.84;;;9.83;100.00
69784;BME280;57054;51.978;4.498;2023-03-23T07:35:09;100189.88;;;9.82;100.00
69784;BME280;57054;51.978;4.498;2023-03-23T07:37:35;100189.06;;;9.82;100.00
69784;BME280;57054;51.978;4.498;2023-03-23T07:40:01;100202.13;;;9.82;100.00
69784;BME280;57054;51.978;4.498;2023-03-23T07:42:39;100194.28;;;9.82;100.00
69784;BME280;57054;51.978;4.498;2023-03-23T07:45:05;100203.84;;;9.83;100.00
69784;BME280;57054;51.978;4.498;2023-03-23T07:47:31;100201.22;;;9.83;100.00
69784;BME280;57054;51.978;4.498;2023-03-23T07:49:56;100204.59;;;9.85;100.00
69784;BME280;57054;51.978;4.498;2023-03-23T07:52:22;100211.50;;;9.86;100.00
69784;BME280;57054;51.978;4.498;2023-03-23T07:54:49;100207.09;;;9.88;100.00
69784;BME280;57054;51.978;4.498;2023-03-23T07:57:14;100214.94;;;9.88;100.00
69784;BME280;57054;51.978;4.498;2023-03-23T07:59:40;100221.00;;;9.88;100.00
69784;BME280;57054;51.978;4.498;2023-03-23T08:02:08;100221.91;;;9.87;100.00
69784;BME280;57054;51.978;4.498;2023-03-23T08:04:34;100221.00;;;9.88;100.00
69784;BME280;57054;51.978;4.498;2023-03-23T08:07:03;100228.84;;;9.88;100.00
69784;BME280;57054;51.978;4.498;2023-03-23T08:09:30;100236.69;;;9.88;100.00
69784;BME280;57054;51.978;4.498;2023-03-23T08:11:56;100236.63;;;9.90;100.00
69784;BME280;57054;51.978;4.498;2023-03-23T08:14:21;100231.28;;;9.91;100.00
69784;BME280;57054;51.978;4.498;2023-03-23T08:16:48;100236.53;;;9.91;100.00
69784;BME280;57054;51.978;4.498;2023-03-23T08:19:14;100242.56;;;9.93;100.00
69784;BME280;57054;51.978;4.498;2023-03-23T08:21:39;100234.72;;;9.93;100.00
69784;BME280;57054;51.978;4.498;2023-03-23T08:24:05;100234.63;;;9.95;100.00
69784;BME280;57054;51.978;4.498;2023-03-23T08:26:31;100249.47;;;9.94;100.00
69784;BME280;57054;51.978;4.498;2023-03-23T08:28:56;100244.25;;;9.94;100.00
69784;BME280;57054;51.978;4.498;2023-03-23T08:31:22;100252.03;;;9.96;100.00
69784;BME280;57054;51.978;4.498;2023-03-23T08:33:48;100247.63;;;9.96;100.00
69784;BME280;57054;51.978;4.498;2023-03-23T08:36:14;100255.34;;;9.99;100.00
69784;BME280;57054;51.978;4.498;2023-03-23T08:38:39;100257.88;;;10.01;100.00
69784;BME280;57054;51.978;4.498;2023-03-23T08:41:05;100254.44;;;10.01;100.00
69784;BME280;57054;51.978;4.498;2023-03-23T08:43:33;100264.78;;;10.02;100.00
69784;BME280;57054;51.978;4.498;2023-03-23T08:45:59;100279.59;;;10.03;100.00
69784;BME280;57054;51.978;4.498;2023-03-23T08:48:25;100268.22;;;10.04;100.00
69784;BME280;57054;51.978;4.498;2023-03-23T08:50:51;100263.81;;;10.05;100.00
69784;BME280;57054;51.978;4.498;2023-03-23T08:53:18;100276.91;;;10.05;100.00
69784;BME280;57054;51.978;4.498;2023-03-23T08:55:45;100272.50;;;10.05;100.00
69784;BME280;57054;51.978;4.498;2023-03-23T08:58:11;100263.75;;;10.06;100.00
69784;BME280;57054;51.978;4.498;2023-03-23T09:00:36;100252.34;;;10.07;100.00
69784;BME280;57054;51.978;4.498;2023-03-23T09:03:02;100259.28;;;10.08;100.00
69784;BME280;57054;51.978;4.498;2023-03-23T09:05:28;100258.34;;;10.09;100.00
69784;BME280;57054;51.978;4.498;2023-03-23T09:07:56;100261.84;;;10.10;100.00
69784;BME280;57054;51.978;4.498;2023-03-23T09:10:24;100262.69;;;10.10;99.73
69784;BME280;57054;51.978;4.498;2023-03-23T09:12:51;100263.44;;;10.12;100.00
69784;BME280;57054;51.978;4.498;2023-03-23T09:15:17;100263.44;;;10.12;98.53
69784;BME280;57054;51.978;4.498;2023-03-23T09:17:48;100262.44;;;10.15;98.77
69784;BME280;57054;51.978;4.498;2023-03-23T09:20:17;100275.31;;;10.19;96.14
69784;BME280;57054;51.978;4.498;2023-03-23T09:22:47;100267.41;;;10.21;96.82
69784;BME280;57054;51.978;4.498;2023-03-23T09:25:15;100264.72;;;10.23;96.29
69784;BME280;57054;51.978;4.498;2023-03-23T09:27:44;100267.31;;;10.23;96.21
69784;BME280;57054;51.978;4.498;2023-03-23T09:30:13;100264.72;;;10.23;96.63
69784;BME280;57054;51.978;4.498;2023-03-23T09:32:39;100274.41;;;10.21;96.99
69784;BME280;57054;51.978;4.498;2023-03-23T09:35:07;100279.63;;;10.21;98.14
69784;BME280;57054;51.978;4.498;2023-03-23T09:37:34;100281.47;;;10.18;97.42
69784;BME280;57054;51.978;4.498;2023-03-23T09:40:05;100280.63;;;10.18;95.41
69784;BME280;57054;51.978;4.498;2023-03-23T09:45:35;100292.72;;;10.21;98.04
69784;BME280;57054;51.978;4.498;2023-03-23T09:50:30;100303.09;;;10.22;98.68
69784;BME280;57054;51.978;4.498;2023-03-23T09:53:14;100302.25;;;10.22;98.70
69784;BME280;57054;51.978;4.498;2023-03-23T09:55:42;100302.25;;;10.22;99.27
69784;BME280;57054;51.978;4.498;2023-03-23T09:58:18;100308.44;;;10.21;96.32
69784;BME280;57054;51.978;4.498;2023-03-23T10:01:00;100307.22;;;10.28;95.21
69784;BME280;57054;51.978;4.498;2023-03-23T10:03:34;100307.00;;;10.32;97.02
69784;BME280;57054;51.978;4.498;2023-03-23T10:06:02;100306.94;;;10.34;97.34
69784;BME280;57054;51.978;4.498;2023-03-23T10:08:30;100312.88;;;10.37;97.11
69784;BME280;57054;51.978;4.498;2023-03-23T10:11:02;100312.81;;;10.39;97.10
69784;BME280;57054;51.978;4.498;2023-03-23T10:16:03;100313.56;;;10.41;96.02
69784;BME280;57054;51.978;4.498;2023-03-23T10:18:37;100326.44;;;10.46;94.17
69784;BME280;57054;51.978;4.498;2023-03-23T10:21:03;100331.31;;;10.53;92.10
69784;BME280;57054;51.978;4.498;2023-03-23T10:23:41;100323.28;;;10.56;93.03
69784;BME280;57054;51.978;4.498;2023-03-23T10:26:28;100324.94;;;10.59;93.92
69784;BME280;57054;51.978;4.498;2023-03-23T10:29:01;100329.00;;;10.65;90.80
69784;BME280;57054;51.978;4.498;2023-03-23T10:31:35;100329.25;;;10.78;90.11
69784;BME280;57054;51.978;4.498;2023-03-23T10:34:08;100318.47;;;10.84;89.97
69784;BME280;57054;51.978;4.498;2023-03-23T10:36:40;100326.88;;;10.90;91.92
69784;BME280;57054;51.978;4.498;2023-03-23T10:39:11;100315.38;;;10.93;93.35
69784;BME280;57054;51.978;4.498;2023-03-23T10:41:37;100312.75;;;10.93;93.03
69784;BME280;57054;51.978;4.498;2023-03-23T10:44:11;100326.72;;;10.93;92.54
69784;BME280;57054;51.978;4.498;2023-03-23T10:46:57;100336.25;;;10.94;93.70
69784;BME280;57054;51.978;4.498;2023-03-23T10:49:26;100324.09;;;10.93;94.82
69784;BME280;57054;51.978;4.498;2023-03-23T10:52:18;100329.25;;;10.95;94.18
69784;BME280;57054;51.978;4.498;2023-03-23T10:54:46;100331.78;;;10.97;93.49
69784;BME280;57054;51.978;4.498;2023-03-23T10:57:20;100319.47;;;10.99;94.15
69784;BME280;57054;51.978;4.498;2023-03-23T10:59:46;100325.50;;;11.01;89.09
69784;BME280;57054;51.978;4.498;2023-03-23T11:02:18;100319.09;;;11.06;88.29
69784;BME280;57054;51.978;4.498;2023-03-23T11:04:56;100316.41;;;11.08;90.77
69784;BME280;57054;51.978;4.498;2023-03-23T11:07:27;100316.41;;;11.08;90.35
69784;BME280;57054;51.978;4.498;2023-03-23T11:09:55;100323.31;;;11.09;90.69
69784;BME280;57054;51.978;4.498;2023-03-23T11:12:21;100316.41;;;11.08;91.32
69784;BME280;57054;51.978;4.498;2023-03-23T11:14:48;100310.13;;;11.10;88.66
69784;BME280;57054;51.978;4.498;2023-03-23T11:17:27;100335.81;;;11.21;87.14
69784;BME280;57054;51.978;4.498;2023-03-23T11:19:53;100330.78;;;11.34;84.71
69784;BME280;57054;51.978;4.498;2023-03-23T11:22:31;100318.50;;;11.34;87.03
69784;BME280;57054;51.978;4.498;2023-03-23T11:25:04;100328.22;;;11.32;89.30
69784;BME280;57054;51.978;4.498;2023-03-23T11:27:30;100311.81;;;11.29;89.07
69784;BME280;57054;51.978;4.498;2023-03-23T11:32:35;100315.44;;;11.26;91.08
69784;BME280;57054;51.978;4.498;2023-03-23T11:35:15;100317.03;;;11.29;92.61
69784;BME280;57054;51.978;4.498;2023-03-23T11:37:46;100308.19;;;11.31;90.85
69784;BME280;57054;51.978;4.498;2023-03-23T11:40:16;100306.25;;;11.35;92.59
69784;BME280;57054;51.978;4.498;2023-03-23T11:45:31;100314.78;;;11.39;90.94
69784;BME280;57054;51.978;4.498;2023-03-23T11:48:28;100310.22;;;11.42;86.64
69784;BME280;57054;51.978;4.498;2023-03-23T11:56:24;100313.84;;;11.57;89.74
69784;BME280;57054;51.978;4.498;2023-03-23T11:58:52;100318.06;;;11.60;90.67
69784;BME280;57054;51.978;4.498;2023-03-23T12:04:20;100333.22;;;11.70;85.59
69784;BME280;57054;51.978;4.498;2023-03-23T12:10:09;100326.22;;;11.87;82.45
69784;BME280;57054;51.978;4.498;2023-03-23T12:12:47;100326.84;;;11.92;81.27
69784;BME280;57054;51.978;4.498;2023-03-23T12:15:34;100324.16;;;11.94;81.92
69784;BME280;57054;51.978;4.498;2023-03-23T12:18:16;100312.97;;;11.90;81.53
69784;BME280;57054;51.978;4.498;2023-03-23T12:20:54;100329.69;;;11.87;80.95
69784;BME280;57054;51.978;4.498;2023-03-23T12:26:10;100309.13;;;11.80;81.83
69784;BME280;57054;51.978;4.498;2023-03-23T12:31:22;100307.09;;;11.85;81.54
69784;BME280;57054;51.978;4.498;2023-03-23T12:34:03;100315.72;;;11.87;82.91
69784;BME280;57054;51.978;4.498;2023-03-23T12:39:49;100306.06;;;11.87;85.38
69784;BME280;57054;51.978;4.498;2023-03-23T12:48:11;100290.63;;;11.99;86.14
69784;BME280;57054;51.978;4.498;2023-03-23T12:53:26;100301.97;;;11.99;86.94
69784;BME280;57054;51.978;4.498;2023-03-23T12:56:10;100302.06;;;11.98;87.52
69784;BME280;57054;51.978;4.498;2023-03-23T12:58:45;100305.78;;;11.94;85.46
69784;BME280;57054;51.978;4.498;2023-03-23T13:01:16;100311.97;;;11.93;86.74
69784;BME280;57054;51.978;4.498;2023-03-23T13:04:07;100345.31;;;11.90;86.28
69784;BME280;57054;51.978;4.498;2023-03-23T13:06:39;100331.84;;;11.97;83.87
69784;BME280;57054;51.978;4.498;2023-03-23T13:11:58;100338.44;;;12.04;82.12
69784;BME280;57054;51.978;4.498;2023-03-23T13:14:57;100323.91;;;12.14;79.49
69784;BME280;57054;51.978;4.498;2023-03-23T13:20:34;100319.66;;;12.27;81.28
69784;BME280;57054;51.978;4.498;2023-03-23T13:25:49;100324.66;;;12.32;83.90
69784;BME280;57054;51.978;4.498;2023-03-23T13:28:21;100323.97;;;12.28;82.30
69784;BME280;57054;51.978;4.498;2023-03-23T13:31:02;100333.53;;;12.29;79.94
69784;BME280;57054;51.978;4.498;2023-03-23T13:33:31;100339.47;;;12.33;80.45
69784;BME280;57054;51.978;4.498;2023-03-23T13:36:02;100334.22;;;12.33;81.44
69784;BME280;57054;51.978;4.498;2023-03-23T13:38:31;100328.97;;;12.33;83.41
69784;BME280;57054;51.978;4.498;2023-03-23T13:40:57;100342.88;;;12.35;83.47
69784;BME280;57054;51.978;4.498;2023-03-23T13:43:34;100333.97;;;12.38;83.60
69784;BME280;57054;51.978;4.498;2023-03-23T13:48:40;100322.94;;;12.47;78.85
69784;BME280;57054;51.978;4.498;2023-03-23T13:51:32;100322.94;;;12.47;79.27
69784;BME280;57054;51.978;4.498;2023-03-23T13:54:23;100305.41;;;12.47;77.09
69784;BME280;57054;51.978;4.498;2023-03-23T13:57:01;100287.97;;;12.46;79.24
69784;BME280;57054;51.978;4.498;2023-03-23T14:01:56;100305.16;;;12.52;79.75
69784;BME280;57054;51.978;4.498;2023-03-23T14:04:29;100305.16;;;12.52;81.52
69784;BME280;57054;51.978;4.498;2023-03-23T14:06:56;100317.16;;;12.56;77.88
69784;BME280;57054;51.978;4.498;2023-03-23T14:09:32;100302.75;;;12.63;78.22
69784;BME280;57054;51.978;4.498;2023-03-23T14:12:01;100311.28;;;12.67;78.38
69784;BME280;57054;51.978;4.498;2023-03-23T14:14:39;100317.47;;;12.66;80.32
69784;BME280;57054;51.978;4.498;2023-03-23T14:17:41;100307.25;;;12.61;79.07
69784;BME280;57054;51.978;4.498;2023-03-23T14:20:20;100286.41;;;12.58;79.05
69784;BME280;57054;51.978;4.498;2023-03-23T14:22:53;100280.31;;;12.58;80.08
69784;BME280;57054;51.978;4.498;2023-03-23T14:25:19;100261.16;;;12.56;78.74